aviador You're here:

KEHR Decoded Metar

HENDERSON CITY in KY, USA
Report Time2017-12-16 17:56:00
UTC Time2017-12-16 18:53:35
Flight Rules vfr VFR
Wind220° at 18 Gusting to 23 kt
W.Decomp.*RWY 27: 11.8 kt HW 13.6 kt LCW
W.Rank220° ranks 5
Current wind is above 220° avg. (8.0)
Visibility9999 m
Phenomena:N/A
Clouds:N/A
Expected CloudBase > 3,600 ft AGL from Temp-Dew spread
CeilingNone
Temp09°C (ISA -5)
Dew Point00°C (54% RH)
AAT0.6°C
QNH1020 hPa
Density Alt-394 ft
Elevation384 ft
Report Wrong Elevation
Raw Report
KEHR 161756Z AUTO 22018G23KT 10SM CLR 09/00 A3011 RMK AO2 SLP209
T00940000 10094 20000 58013=

Extra information for KEHR:More info

Metar Taf Metar & Taf Last 4 Metars F.Rules Stats Wind Profile Meteogram Temp Stats Airport Information Weather charts Add Link Nearby VenuesMetar ALERT Operation Metar Decoded Social comments

AIRNAV info for KEHR